createdAt,value
2023-03-13T00:03:09.410Z,9
2023-03-13T00:08:11.524Z,10
2023-03-13T00:13:13.622Z,9.5
2023-03-13T00:18:15.731Z,9.6
2023-03-13T00:23:17.836Z,9.9
2023-03-13T00:28:20.083Z,10.4
2023-03-13T00:33:22.925Z,10.5
2023-03-13T00:38:27.800Z,9.6
2023-03-13T00:43:29.963Z,9.5
2023-03-13T00:48:32.196Z,9.7
2023-03-13T00:53:34.392Z,9.3
2023-03-13T00:58:36.673Z,8.4
2023-03-13T01:03:38.909Z,7.7
2023-03-13T01:08:41.149Z,8
2023-03-13T01:13:43.214Z,7.9
2023-03-13T01:18:45.347Z,7.6
2023-03-13T01:23:47.532Z,7.7
2023-03-13T01:28:49.564Z,7.8
2023-03-13T01:33:51.935Z,7.5
2023-03-13T01:38:54.256Z,7.5
2023-03-13T01:43:56.480Z,8.1
2023-03-13T01:48:58.630Z,7.7
2023-03-13T01:54:00.836Z,7.8
2023-03-13T01:59:03.089Z,7.6
2023-03-13T02:04:05.183Z,8.1
2023-03-13T02:09:07.504Z,8
2023-03-13T02:14:09.648Z,8.1
2023-03-13T02:19:11.882Z,8.5
2023-03-13T02:24:14.242Z,7.9
2023-03-13T02:29:16.464Z,7.8
2023-03-13T02:34:18.650Z,8.2
2023-03-13T02:39:21.053Z,8.4
2023-03-13T02:44:23.446Z,7.9
2023-03-13T02:49:26.707Z,9
2023-03-13T02:54:28.878Z,8.5
2023-03-13T02:59:31.015Z,8.9
2023-03-13T03:04:33.133Z,8.8
2023-03-13T03:09:35.403Z,8.4
2023-03-13T03:14:37.508Z,8.1
2023-03-13T03:19:39.612Z,8.8
2023-03-13T03:24:41.768Z,9.2
2023-03-13T03:29:44.072Z,9.3
2023-03-13T03:34:46.306Z,10.2
2023-03-13T03:39:48.584Z,10.3
2023-03-13T03:44:50.911Z,9.6
2023-03-13T03:49:53.002Z,9.6
2023-03-13T03:54:56.332Z,9
2023-03-13T03:59:58.658Z,9.1
2023-03-13T04:05:00.669Z,9
2023-03-13T04:10:02.837Z,9.2
2023-03-13T04:15:04.921Z,8.4
2023-03-13T04:20:07.165Z,8.6
2023-03-13T04:25:09.465Z,8.9
2023-03-13T04:30:11.712Z,8.6
2023-03-13T04:35:14.079Z,8.8
2023-03-13T04:40:16.683Z,9.7
2023-03-13T04:45:19.046Z,8.7
2023-03-13T04:50:21.388Z,8.5
2023-03-13T04:55:23.806Z,8.8
2023-03-13T05:00:26.261Z,11.4
2023-03-13T05:05:28.510Z,8.9
2023-03-13T05:10:31.029Z,9.5
2023-03-13T05:15:36.932Z,9.7
2023-03-13T05:20:39.412Z,9.9
2023-03-13T05:25:41.593Z,9.9
2023-03-13T05:30:43.776Z,9.7
2023-03-13T05:35:46.646Z,9.9
2023-03-13T05:40:49.420Z,10.9
2023-03-13T05:45:51.620Z,10.3
2023-03-13T05:50:53.677Z,10.6
2023-03-13T05:55:55.802Z,11.5
2023-03-13T06:00:58.001Z,9.9
2023-03-13T06:06:00.222Z,9.7
2023-03-13T06:11:02.331Z,10.7
2023-03-13T06:16:04.668Z,11.4
2023-03-13T06:21:07.561Z,9.9
2023-03-13T06:26:09.802Z,10.1
2023-03-13T06:31:12.209Z,10.8
2023-03-13T06:36:14.605Z,9.2
2023-03-13T06:41:17.201Z,8.9
2023-03-13T06:46:19.835Z,8.8
2023-03-13T06:51:22.415Z,8.6
2023-03-13T06:56:24.886Z,8.9
2023-03-13T07:01:28.603Z,6.9
2023-03-13T07:06:31.891Z,7.7
2023-03-13T07:11:35.027Z,8.3
2023-03-13T07:16:37.530Z,8.9
2023-03-13T07:21:40.044Z,7.6
2023-03-13T07:27:07.366Z,6.9
2023-03-13T07:31:51.407Z,9.1
2023-03-13T07:36:54.264Z,6.8
2023-03-13T07:41:57.228Z,7
2023-03-13T07:47:01.375Z,8.2
2023-03-13T07:52:05.973Z,7.3
2023-03-13T07:57:09.132Z,6.2
2023-03-13T08:02:11.922Z,6.1
2023-03-13T08:07:14.319Z,6.3
2023-03-13T08:12:17.392Z,6.9
2023-03-13T08:17:20.118Z,6.7
2023-03-13T08:22:22.405Z,5.7
2023-03-13T08:27:24.538Z,7
2023-03-13T08:32:25.100Z,4.5
2023-03-13T08:37:27.664Z,4.4
2023-03-13T08:42:30.070Z,23.6
2023-03-13T08:47:32.270Z,28
2023-03-13T08:52:35.269Z,23.9
2023-03-13T08:57:37.650Z,17.1
2023-03-13T09:02:40.003Z,8.9
2023-03-13T09:07:42.542Z,4.9
2023-03-13T09:12:44.987Z,3.5
2023-03-13T09:17:47.501Z,3.4
2023-03-13T09:22:49.806Z,3.4
2023-03-13T09:27:52.167Z,3.2
2023-03-13T09:32:54.598Z,3.2
2023-03-13T09:37:56.940Z,2.8
2023-03-13T09:42:59.039Z,2.9
2023-03-13T09:48:01.300Z,2.9
2023-03-13T09:53:03.599Z,2.8
2023-03-13T09:58:05.778Z,2.5
2023-03-13T10:03:07.912Z,2.5
2023-03-13T10:08:10.508Z,2.7
2023-03-13T10:13:12.838Z,2.7
2023-03-13T10:18:15.160Z,2.6
2023-03-13T10:23:17.335Z,2.4
2023-03-13T10:28:23.818Z,2.3
2023-03-13T10:33:26.846Z,2.4
2023-03-13T10:38:29.439Z,2.4
2023-03-13T10:43:31.627Z,2.3
2023-03-13T10:48:34.311Z,2.3
2023-03-13T10:53:36.907Z,2.4
2023-03-13T10:58:39.822Z,2.4
2023-03-13T11:03:43.113Z,2.3
2023-03-13T11:08:46.192Z,2.6
2023-03-13T11:13:49.198Z,2.4
2023-03-13T11:18:52.033Z,2.1
2023-03-13T11:23:55.034Z,2.4
2023-03-13T11:28:57.575Z,2.9
2023-03-13T11:33:59.761Z,2.4
2023-03-13T11:39:02.388Z,2.5
2023-03-13T11:44:05.247Z,2.9
2023-03-13T11:49:12.658Z,2.5
2023-03-13T11:54:15.365Z,3.1
2023-03-13T11:59:17.505Z,3.1
2023-03-13T12:04:21.597Z,3.1
2023-03-13T12:09:29.609Z,3.1
2023-03-13T12:14:31.896Z,3.1
2023-03-13T12:19:33.954Z,2.8
2023-03-13T12:24:38.921Z,2.9
2023-03-13T12:29:41.440Z,3
2023-03-13T12:34:43.578Z,3.1
2023-03-13T12:39:46.025Z,3.1
2023-03-13T12:44:48.399Z,3.1
2023-03-13T12:49:50.508Z,3
2023-03-13T12:54:52.603Z,3.3
2023-03-13T12:59:54.822Z,3.5
2023-03-13T13:04:56.964Z,3.4
2023-03-13T13:09:59.302Z,3.5
2023-03-13T13:15:01.808Z,3.4
2023-03-13T13:20:03.899Z,3.8
2023-03-13T13:25:06.425Z,6.9
2023-03-13T13:30:08.767Z,7.8
2023-03-13T13:35:11.157Z,13
2023-03-13T13:40:13.496Z,16.9
2023-03-13T13:45:16.070Z,18.2
2023-03-13T13:50:18.157Z,25.8
2023-03-13T13:55:20.362Z,20.4
2023-03-13T14:00:22.523Z,21.2
2023-03-13T14:05:24.949Z,17.2
2023-03-13T14:10:27.533Z,20.2
2023-03-13T14:15:29.621Z,10.7
2023-03-13T14:20:31.942Z,4.6
2023-03-13T14:25:34.191Z,4.1
2023-03-13T14:30:36.707Z,3.9
2023-03-13T14:35:39.160Z,3.9
2023-03-13T14:40:41.392Z,3.8
2023-03-13T14:45:43.578Z,4
2023-03-13T14:50:45.748Z,4
2023-03-13T14:55:47.992Z,4.7
2023-03-13T15:00:50.424Z,4.4
2023-03-13T15:05:52.968Z,5
2023-03-13T15:10:55.761Z,5
2023-03-13T15:16:00.803Z,5.3
2023-03-13T15:21:03.325Z,5.8
2023-03-13T15:26:05.773Z,6.5
2023-03-13T15:31:08.156Z,6.5
2023-03-13T15:36:10.671Z,5.8
2023-03-13T15:41:13.414Z,6
2023-03-13T15:46:16.622Z,5.6
2023-03-13T15:51:19.279Z,5.4
2023-03-13T15:56:21.684Z,5.2
2023-03-13T16:01:24.206Z,5.4
2023-03-13T16:06:26.773Z,5.5
2023-03-13T16:11:28.989Z,5.8
2023-03-13T16:16:31.412Z,6.1
2023-03-13T16:21:38.226Z,6.2
2023-03-13T16:26:40.200Z,6.4
2023-03-13T16:31:43.769Z,6.9
2023-03-13T16:36:46.096Z,7.1
2023-03-13T16:41:48.192Z,7.1
2023-03-13T16:47:06.458Z,7.5
2023-03-13T16:51:58.911Z,8
2023-03-13T16:57:01.016Z,9.1
2023-03-13T17:02:03.456Z,8.2
2023-03-13T17:07:05.904Z,8.7
2023-03-13T17:12:07.886Z,8.6
2023-03-13T17:17:09.952Z,8.3
2023-03-13T17:22:15.009Z,8.4
2023-03-13T17:27:18.051Z,8.2
2023-03-13T17:32:20.328Z,8.3
2023-03-13T17:37:22.679Z,8.9
2023-03-13T17:42:25.256Z,8.8
2023-03-13T17:47:27.793Z,8.4
2023-03-13T17:52:30.335Z,8.8
2023-03-13T17:57:32.879Z,9.2
2023-03-13T18:02:35.187Z,9.3
2023-03-13T18:07:37.395Z,9.3
2023-03-13T18:12:39.572Z,8.6
2023-03-13T18:17:41.713Z,9.1
2023-03-13T18:22:43.780Z,9.1
2023-03-13T18:27:46.106Z,8.8
2023-03-13T18:32:48.222Z,9
2023-03-13T18:37:50.384Z,9.1
2023-03-13T18:42:53.084Z,9.4
2023-03-13T18:48:02.664Z,9.3
2023-03-13T18:53:08.450Z,8.8
2023-03-13T18:58:11.074Z,9.5
2023-03-13T19:03:16.629Z,8.9
2023-03-13T19:08:19.912Z,9.1
2023-03-13T19:13:22.348Z,9.6
2023-03-13T19:18:24.705Z,9.3
2023-03-13T19:23:27.573Z,8.7
2023-03-13T19:28:33.770Z,8.7
2023-03-13T19:33:36.266Z,9
2023-03-13T19:38:38.695Z,8.5
2023-03-13T19:43:42.447Z,8.4
2023-03-13T19:48:44.922Z,8.1
2023-03-13T19:53:47.433Z,8.4
2023-03-13T19:58:54.717Z,9
2023-03-13T20:03:57.022Z,8.8
2023-03-13T20:08:59.475Z,8.8
2023-03-13T20:14:01.724Z,10.5
2023-03-13T20:19:04.525Z,9.4
2023-03-13T20:24:06.596Z,9
2023-03-13T20:29:08.765Z,8.9
2023-03-13T20:34:11.007Z,9.1
2023-03-13T20:39:13.350Z,9
2023-03-13T20:44:15.457Z,9.4
2023-03-13T20:49:17.503Z,9.1
2023-03-13T20:54:19.699Z,9
2023-03-13T20:59:21.856Z,9.2
2023-03-13T21:04:24.057Z,8.6
2023-03-13T21:09:26.626Z,8.8
2023-03-13T21:14:28.656Z,8.2
2023-03-13T21:19:30.615Z,8.8
2023-03-13T21:24:32.723Z,9.2
2023-03-13T21:29:34.903Z,9.1
2023-03-13T21:34:37.292Z,8.4
2023-03-13T21:39:39.796Z,8.9
2023-03-13T21:44:42.032Z,8
2023-03-13T21:49:44.312Z,7.7
2023-03-13T21:54:46.613Z,8.3
2023-03-13T21:59:48.676Z,7.8
2023-03-13T22:04:51.243Z,7.6
2023-03-13T22:09:53.892Z,7.9
2023-03-13T22:14:58.583Z,7.8
2023-03-13T22:20:00.974Z,7.8
2023-03-13T22:25:03.504Z,7.4
2023-03-13T22:30:05.878Z,7.5
2023-03-13T22:35:08.445Z,7.6
2023-03-13T22:40:11.157Z,7.7
2023-03-13T22:45:13.259Z,7.3
2023-03-13T22:50:15.228Z,7.1
2023-03-13T22:55:17.294Z,7.3
2023-03-13T23:00:19.448Z,7.5
2023-03-13T23:05:21.616Z,7.6
2023-03-13T23:10:23.921Z,7
2023-03-13T23:15:37.872Z,7.2
2023-03-13T23:20:27.351Z,7.2
2023-03-13T23:25:29.567Z,10.3
2023-03-13T23:30:30.032Z,6.9
2023-03-13T23:35:32.400Z,7
2023-03-13T23:40:35.263Z,7
2023-03-13T23:45:37.575Z,7
2023-03-13T23:50:39.847Z,7.5
2023-03-13T23:55:42.048Z,7.2
